sensor_id;sensor_type;location;lat;lon;timestamp;P1;durP1;ratioP1;P2;durP2;ratioP2
24547;SDS011;12713;51.624;4.924;2022-08-01T00:02:18;32.35;;;18.17;;
24547;SDS011;12713;51.624;4.924;2022-08-01T00:04:44;30.48;;;18.30;;
24547;SDS011;12713;51.624;4.924;2022-08-01T00:07:10;27.52;;;16.45;;
24547;SDS011;12713;51.624;4.924;2022-08-01T00:09:36;29.08;;;15.82;;
24547;SDS011;12713;51.624;4.924;2022-08-01T00:12:02;27.90;;;14.10;;
24547;SDS011;12713;51.624;4.924;2022-08-01T00:14:29;23.00;;;15.77;;
24547;SDS011;12713;51.624;4.924;2022-08-01T00:16:55;24.88;;;14.98;;
24547;SDS011;12713;51.624;4.924;2022-08-01T00:19:21;28.75;;;17.23;;
24547;SDS011;12713;51.624;4.924;2022-08-01T00:21:47;25.70;;;15.80;;
24547;SDS011;12713;51.624;4.924;2022-08-01T00:24:13;29.38;;;14.15;;
24547;SDS011;12713;51.624;4.924;2022-08-01T00:26:39;24.30;;;16.77;;
24547;SDS011;12713;51.624;4.924;2022-08-01T00:29:05;23.40;;;15.07;;
24547;SDS011;12713;51.624;4.924;2022-08-01T00:31:31;22.75;;;14.70;;
24547;SDS011;12713;51.624;4.924;2022-08-01T00:33:57;22.55;;;14.20;;
24547;SDS011;12713;51.624;4.924;2022-08-01T00:36:23;19.52;;;13.35;;
24547;SDS011;12713;51.624;4.924;2022-08-01T00:38:49;20.73;;;14.55;;
24547;SDS011;12713;51.624;4.924;2022-08-01T00:41:15;26.27;;;15.45;;
24547;SDS011;12713;51.624;4.924;2022-08-01T00:43:41;22.15;;;14.80;;
24547;SDS011;12713;51.624;4.924;2022-08-01T00:46:07;19.85;;;13.93;;
24547;SDS011;12713;51.624;4.924;2022-08-01T00:48:33;21.10;;;13.75;;
24547;SDS011;12713;51.624;4.924;2022-08-01T00:50:59;16.83;;;11.68;;
24547;SDS011;12713;51.624;4.924;2022-08-01T00:53:25;22.92;;;13.32;;
24547;SDS011;12713;51.624;4.924;2022-08-01T00:55:52;23.63;;;15.52;;
24547;SDS011;12713;51.624;4.924;2022-08-01T00:58:18;14.13;;;10.85;;
24547;SDS011;12713;51.624;4.924;2022-08-01T01:00:44;18.50;;;14.00;;
24547;SDS011;12713;51.624;4.924;2022-08-01T01:03:10;21.92;;;15.35;;
24547;SDS011;12713;51.624;4.924;2022-08-01T01:05:40;16.08;;;11.65;;
24547;SDS011;12713;51.624;4.924;2022-08-01T01:08:13;18.77;;;12.55;;
24547;SDS011;12713;51.624;4.924;2022-08-01T01:10:46;23.05;;;12.55;;
24547;SDS011;12713;51.624;4.924;2022-08-01T01:13:34;23.27;;;13.40;;
24547;SDS011;12713;51.624;4.924;2022-08-01T01:16:05;22.65;;;13.73;;
24547;SDS011;12713;51.624;4.924;2022-08-01T01:18:38;19.90;;;13.70;;
24547;SDS011;12713;51.624;4.924;2022-08-01T01:23:45;16.42;;;11.20;;
24547;SDS011;12713;51.624;4.924;2022-08-01T01:29:02;19.40;;;12.02;;
24547;SDS011;12713;51.624;4.924;2022-08-01T01:31:31;16.85;;;11.48;;
24547;SDS011;12713;51.624;4.924;2022-08-01T01:33:58;25.35;;;15.40;;
24547;SDS011;12713;51.624;4.924;2022-08-01T01:36:25;22.08;;;15.50;;
24547;SDS011;12713;51.624;4.924;2022-08-01T01:38:52;17.35;;;11.75;;
24547;SDS011;12713;51.624;4.924;2022-08-01T01:41:18;21.13;;;15.07;;
24547;SDS011;12713;51.624;4.924;2022-08-01T01:43:46;19.33;;;13.07;;
24547;SDS011;12713;51.624;4.924;2022-08-01T01:46:12;20.00;;;13.25;;
24547;SDS011;12713;51.624;4.924;2022-08-01T01:48:40;34.60;;;13.90;;
24547;SDS011;12713;51.624;4.924;2022-08-01T01:51:09;21.80;;;12.88;;
24547;SDS011;12713;51.624;4.924;2022-08-01T01:53:35;22.42;;;14.45;;
24547;SDS011;12713;51.624;4.924;2022-08-01T01:56:02;21.15;;;12.77;;
24547;SDS011;12713;51.624;4.924;2022-08-01T01:58:29;16.60;;;11.32;;
24547;SDS011;12713;51.624;4.924;2022-08-01T02:00:56;16.63;;;11.25;;
24547;SDS011;12713;51.624;4.924;2022-08-01T02:03:24;18.05;;;13.10;;
24547;SDS011;12713;51.624;4.924;2022-08-01T02:05:51;15.05;;;10.65;;
24547;SDS011;12713;51.624;4.924;2022-08-01T02:08:19;17.27;;;11.98;;
24547;SDS011;12713;51.624;4.924;2022-08-01T02:10:45;18.17;;;12.32;;
24547;SDS011;12713;51.624;4.924;2022-08-01T02:13:31;17.20;;;11.32;;
24547;SDS011;12713;51.624;4.924;2022-08-01T02:15:58;15.77;;;11.15;;
24547;SDS011;12713;51.624;4.924;2022-08-01T02:18:24;16.70;;;11.50;;
24547;SDS011;12713;51.624;4.924;2022-08-01T02:20:51;16.15;;;11.57;;
24547;SDS011;12713;51.624;4.924;2022-08-01T02:23:18;15.73;;;10.32;;
24547;SDS011;12713;51.624;4.924;2022-08-01T02:25:50;17.95;;;12.57;;
24547;SDS011;12713;51.624;4.924;2022-08-01T02:28:22;17.42;;;11.38;;
24547;SDS011;12713;51.624;4.924;2022-08-01T02:30:53;12.98;;;9.07;;
24547;SDS011;12713;51.624;4.924;2022-08-01T02:33:24;18.27;;;11.63;;
24547;SDS011;12713;51.624;4.924;2022-08-01T02:35:53;21.48;;;12.88;;
24547;SDS011;12713;51.624;4.924;2022-08-01T02:38:22;19.50;;;12.88;;
24547;SDS011;12713;51.624;4.924;2022-08-01T02:40:49;23.33;;;13.73;;
24547;SDS011;12713;51.624;4.924;2022-08-01T02:43:17;15.55;;;11.52;;
24547;SDS011;12713;51.624;4.924;2022-08-01T02:45:45;21.92;;;14.85;;
24547;SDS011;12713;51.624;4.924;2022-08-01T02:48:12;24.52;;;15.73;;
24547;SDS011;12713;51.624;4.924;2022-08-01T02:50:41;18.98;;;11.45;;
24547;SDS011;12713;51.624;4.924;2022-08-01T02:53:08;18.50;;;11.38;;
24547;SDS011;12713;51.624;4.924;2022-08-01T02:55:35;19.13;;;12.93;;
24547;SDS011;12713;51.624;4.924;2022-08-01T02:58:02;17.02;;;11.20;;
24547;SDS011;12713;51.624;4.924;2022-08-01T03:00:29;20.65;;;13.20;;
24547;SDS011;12713;51.624;4.924;2022-08-01T03:02:55;22.63;;;12.95;;
24547;SDS011;12713;51.624;4.924;2022-08-01T03:05:22;20.70;;;12.18;;
24547;SDS011;12713;51.624;4.924;2022-08-01T03:07:52;19.45;;;12.45;;
24547;SDS011;12713;51.624;4.924;2022-08-01T03:10:18;21.65;;;13.77;;
24547;SDS011;12713;51.624;4.924;2022-08-01T03:12:45;20.60;;;13.18;;
24547;SDS011;12713;51.624;4.924;2022-08-01T03:15:12;23.27;;;14.02;;
24547;SDS011;12713;51.624;4.924;2022-08-01T03:17:39;21.70;;;13.43;;
24547;SDS011;12713;51.624;4.924;2022-08-01T03:20:06;26.48;;;16.50;;
24547;SDS011;12713;51.624;4.924;2022-08-01T03:22:33;29.73;;;17.95;;
24547;SDS011;12713;51.624;4.924;2022-08-01T03:25:00;26.42;;;16.40;;
24547;SDS011;12713;51.624;4.924;2022-08-01T03:27:27;21.58;;;13.65;;
24547;SDS011;12713;51.624;4.924;2022-08-01T03:29:54;23.63;;;14.65;;
24547;SDS011;12713;51.624;4.924;2022-08-01T03:32:21;24.08;;;15.20;;
24547;SDS011;12713;51.624;4.924;2022-08-01T03:34:47;23.20;;;13.50;;
24547;SDS011;12713;51.624;4.924;2022-08-01T03:37:21;19.60;;;12.00;;
24547;SDS011;12713;51.624;4.924;2022-08-01T03:40:02;18.80;;;11.52;;
24547;SDS011;12713;51.624;4.924;2022-08-01T03:42:34;28.58;;;15.30;;
24547;SDS011;12713;51.624;4.924;2022-08-01T03:45:03;20.90;;;12.23;;
24547;SDS011;12713;51.624;4.924;2022-08-01T03:47:31;16.50;;;12.20;;
24547;SDS011;12713;51.624;4.924;2022-08-01T03:49:58;19.38;;;12.07;;
24547;SDS011;12713;51.624;4.924;2022-08-01T03:52:25;22.98;;;14.43;;
24547;SDS011;12713;51.624;4.924;2022-08-01T03:54:53;23.10;;;12.57;;
24547;SDS011;12713;51.624;4.924;2022-08-01T03:57:20;23.98;;;15.60;;
24547;SDS011;12713;51.624;4.924;2022-08-01T03:59:47;19.58;;;13.32;;
24547;SDS011;12713;51.624;4.924;2022-08-01T04:02:14;26.95;;;15.07;;
24547;SDS011;12713;51.624;4.924;2022-08-01T04:04:40;23.15;;;14.50;;
24547;SDS011;12713;51.624;4.924;2022-08-01T04:07:20;20.80;;;12.70;;
24547;SDS011;12713;51.624;4.924;2022-08-01T04:09:47;18.95;;;11.82;;
24547;SDS011;12713;51.624;4.924;2022-08-01T04:12:13;14.98;;;11.68;;
24547;SDS011;12713;51.624;4.924;2022-08-01T04:14:39;18.27;;;11.25;;
24547;SDS011;12713;51.624;4.924;2022-08-01T04:17:05;20.98;;;13.40;;
24547;SDS011;12713;51.624;4.924;2022-08-01T04:19:31;19.73;;;11.57;;
24547;SDS011;12713;51.624;4.924;2022-08-01T04:21:57;26.90;;;15.10;;
24547;SDS011;12713;51.624;4.924;2022-08-01T04:24:23;20.52;;;11.50;;
24547;SDS011;12713;51.624;4.924;2022-08-01T04:26:49;21.23;;;13.40;;
24547;SDS011;12713;51.624;4.924;2022-08-01T04:29:16;13.00;;;9.48;;
24547;SDS011;12713;51.624;4.924;2022-08-01T04:31:43;17.83;;;11.77;;
24547;SDS011;12713;51.624;4.924;2022-08-01T04:34:11;20.15;;;11.27;;
24547;SDS011;12713;51.624;4.924;2022-08-01T04:36:38;20.88;;;9.05;;
24547;SDS011;12713;51.624;4.924;2022-08-01T04:39:06;18.70;;;11.52;;
24547;SDS011;12713;51.624;4.924;2022-08-01T04:41:33;20.05;;;11.40;;
24547;SDS011;12713;51.624;4.924;2022-08-01T04:44:00;15.93;;;9.75;;
24547;SDS011;12713;51.624;4.924;2022-08-01T04:46:28;16.02;;;9.93;;
24547;SDS011;12713;51.624;4.924;2022-08-01T04:48:55;11.27;;;7.55;;
24547;SDS011;12713;51.624;4.924;2022-08-01T04:51:21;20.27;;;9.23;;
24547;SDS011;12713;51.624;4.924;2022-08-01T04:53:47;11.57;;;7.53;;
24547;SDS011;12713;51.624;4.924;2022-08-01T04:56:15;10.68;;;6.93;;
24547;SDS011;12713;51.624;4.924;2022-08-01T04:58:42;11.32;;;7.40;;
24547;SDS011;12713;51.624;4.924;2022-08-01T05:01:08;11.30;;;7.18;;
24547;SDS011;12713;51.624;4.924;2022-08-01T05:03:35;12.35;;;6.93;;
24547;SDS011;12713;51.624;4.924;2022-08-01T05:06:01;9.93;;;7.13;;
24547;SDS011;12713;51.624;4.924;2022-08-01T05:08:27;11.27;;;6.50;;
24547;SDS011;12713;51.624;4.924;2022-08-01T05:10:53;11.02;;;6.35;;
24547;SDS011;12713;51.624;4.924;2022-08-01T05:13:19;8.77;;;5.32;;
24547;SDS011;12713;51.624;4.924;2022-08-01T05:15:45;10.38;;;7.40;;
24547;SDS011;12713;51.624;4.924;2022-08-01T05:18:11;12.75;;;8.23;;
24547;SDS011;12713;51.624;4.924;2022-08-01T05:20:37;11.95;;;6.78;;
24547;SDS011;12713;51.624;4.924;2022-08-01T05:23:06;9.35;;;6.18;;
24547;SDS011;12713;51.624;4.924;2022-08-01T05:25:32;9.80;;;5.63;;
24547;SDS011;12713;51.624;4.924;2022-08-01T05:27:58;12.98;;;6.88;;
24547;SDS011;12713;51.624;4.924;2022-08-01T05:30:24;11.50;;;6.63;;
24547;SDS011;12713;51.624;4.924;2022-08-01T05:32:50;11.30;;;6.72;;
24547;SDS011;12713;51.624;4.924;2022-08-01T05:35:16;10.00;;;6.90;;
24547;SDS011;12713;51.624;4.924;2022-08-01T05:37:42;10.43;;;7.20;;
24547;SDS011;12713;51.624;4.924;2022-08-01T05:40:09;12.50;;;7.53;;
24547;SDS011;12713;51.624;4.924;2022-08-01T05:42:35;10.82;;;6.60;;
24547;SDS011;12713;51.624;4.924;2022-08-01T05:45:01;8.10;;;5.82;;
24547;SDS011;12713;51.624;4.924;2022-08-01T05:47:27;8.32;;;6.40;;
24547;SDS011;12713;51.624;4.924;2022-08-01T05:49:53;7.57;;;5.32;;
24547;SDS011;12713;51.624;4.924;2022-08-01T05:52:19;10.88;;;5.43;;
24547;SDS011;12713;51.624;4.924;2022-08-01T05:54:45;9.77;;;5.10;;
24547;SDS011;12713;51.624;4.924;2022-08-01T05:57:11;8.82;;;5.78;;
24547;SDS011;12713;51.624;4.924;2022-08-01T05:59:37;8.07;;;4.78;;
24547;SDS011;12713;51.624;4.924;2022-08-01T06:02:03;9.65;;;5.47;;
24547;SDS011;12713;51.624;4.924;2022-08-01T06:04:29;6.25;;;4.25;;
24547;SDS011;12713;51.624;4.924;2022-08-01T06:06:55;8.88;;;5.00;;
24547;SDS011;12713;51.624;4.924;2022-08-01T06:09:21;7.00;;;4.63;;
24547;SDS011;12713;51.624;4.924;2022-08-01T06:11:48;7.40;;;4.10;;
24547;SDS011;12713;51.624;4.924;2022-08-01T06:14:14;7.88;;;4.72;;
24547;SDS011;12713;51.624;4.924;2022-08-01T06:16:40;5.03;;;3.70;;
24547;SDS011;12713;51.624;4.924;2022-08-01T06:19:06;5.45;;;3.22;;
24547;SDS011;12713;51.624;4.924;2022-08-01T06:21:32;5.57;;;3.40;;
24547;SDS011;12713;51.624;4.924;2022-08-01T06:23:58;5.68;;;3.20;;
24547;SDS011;12713;51.624;4.924;2022-08-01T06:26:24;3.85;;;3.10;;
24547;SDS011;12713;51.624;4.924;2022-08-01T06:28:50;4.65;;;3.38;;
24547;SDS011;12713;51.624;4.924;2022-08-01T06:31:16;4.22;;;3.08;;
24547;SDS011;12713;51.624;4.924;2022-08-01T06:33:42;3.92;;;2.88;;
24547;SDS011;12713;51.624;4.924;2022-08-01T06:36:08;2.85;;;1.98;;
24547;SDS011;12713;51.624;4.924;2022-08-01T06:38:34;3.83;;;1.85;;
24547;SDS011;12713;51.624;4.924;2022-08-01T06:41:00;4.05;;;1.77;;
24547;SDS011;12713;51.624;4.924;2022-08-01T06:43:27;2.03;;;1.75;;
24547;SDS011;12713;51.624;4.924;2022-08-01T06:45:53;4.07;;;1.83;;
24547;SDS011;12713;51.624;4.924;2022-08-01T06:48:19;3.65;;;1.70;;
24547;SDS011;12713;51.624;4.924;2022-08-01T06:50:45;1.63;;;1.50;;
24547;SDS011;12713;51.624;4.924;2022-08-01T06:53:11;5.30;;;2.03;;
24547;SDS011;12713;51.624;4.924;2022-08-01T06:55:37;6.30;;;1.90;;
24547;SDS011;12713;51.624;4.924;2022-08-01T06:58:04;2.40;;;1.45;;
24547;SDS011;12713;51.624;4.924;2022-08-01T07:00:30;2.83;;;1.67;;
24547;SDS011;12713;51.624;4.924;2022-08-01T07:02:56;3.72;;;1.80;;
24547;SDS011;12713;51.624;4.924;2022-08-01T07:05:26;5.00;;;1.75;;
24547;SDS011;12713;51.624;4.924;2022-08-01T07:07:55;2.60;;;1.65;;
24547;SDS011;12713;51.624;4.924;2022-08-01T07:10:21;1.88;;;1.75;;
24547;SDS011;12713;51.624;4.924;2022-08-01T07:12:48;2.22;;;1.83;;
24547;SDS011;12713;51.624;4.924;2022-08-01T07:15:14;2.97;;;1.90;;
24547;SDS011;12713;51.624;4.924;2022-08-01T07:17:41;2.40;;;1.40;;
24547;SDS011;12713;51.624;4.924;2022-08-01T07:20:07;4.10;;;2.03;;
24547;SDS011;12713;51.624;4.924;2022-08-01T07:22:34;3.38;;;1.60;;
24547;SDS011;12713;51.624;4.924;2022-08-01T07:25:00;1.70;;;1.60;;
24547;SDS011;12713;51.624;4.924;2022-08-01T07:27:26;1.10;;;1.05;;
24547;SDS011;12713;51.624;4.924;2022-08-01T07:29:52;2.22;;;1.73;;
24547;SDS011;12713;51.624;4.924;2022-08-01T07:32:18;1.25;;;1.15;;
24547;SDS011;12713;51.624;4.924;2022-08-01T07:34:44;1.45;;;1.35;;
24547;SDS011;12713;51.624;4.924;2022-08-01T07:37:10;1.83;;;0.98;;
24547;SDS011;12713;51.624;4.924;2022-08-01T07:39:36;2.60;;;1.30;;
24547;SDS011;12713;51.624;4.924;2022-08-01T07:42:02;1.85;;;1.33;;
24547;SDS011;12713;51.624;4.924;2022-08-01T07:44:28;1.30;;;1.10;;
24547;SDS011;12713;51.624;4.924;2022-08-01T07:46:54;2.80;;;1.33;;
24547;SDS011;12713;51.624;4.924;2022-08-01T07:49:20;1.70;;;1.17;;
24547;SDS011;12713;51.624;4.924;2022-08-01T07:51:47;2.45;;;1.20;;
24547;SDS011;12713;51.624;4.924;2022-08-01T07:54:13;4.72;;;1.73;;
24547;SDS011;12713;51.624;4.924;2022-08-01T07:56:39;3.97;;;1.15;;
24547;SDS011;12713;51.624;4.924;2022-08-01T07:59:05;2.67;;;1.30;;
24547;SDS011;12713;51.624;4.924;2022-08-01T08:01:31;2.78;;;1.45;;
24547;SDS011;12713;51.624;4.924;2022-08-01T08:03:57;4.75;;;1.90;;
24547;SDS011;12713;51.624;4.924;2022-08-01T08:06:23;2.05;;;1.45;;
24547;SDS011;12713;51.624;4.924;2022-08-01T08:08:49;2.70;;;1.63;;
24547;SDS011;12713;51.624;4.924;2022-08-01T08:11:15;7.18;;;1.77;;
24547;SDS011;12713;51.624;4.924;2022-08-01T08:13:41;2.33;;;1.45;;
24547;SDS011;12713;51.624;4.924;2022-08-01T08:16:07;4.25;;;2.00;;
24547;SDS011;12713;51.624;4.924;2022-08-01T08:18:33;2.17;;;1.80;;
24547;SDS011;12713;51.624;4.924;2022-08-01T08:20:59;3.17;;;1.77;;
24547;SDS011;12713;51.624;4.924;2022-08-01T08:23:25;3.03;;;2.00;;
24547;SDS011;12713;51.624;4.924;2022-08-01T08:26:10;3.30;;;1.65;;
24547;SDS011;12713;51.624;4.924;2022-08-01T08:28:36;1.55;;;1.33;;
24547;SDS011;12713;51.624;4.924;2022-08-01T08:31:02;2.75;;;1.73;;
24547;SDS011;12713;51.624;4.924;2022-08-01T08:33:28;1.60;;;1.33;;
24547;SDS011;12713;51.624;4.924;2022-08-01T08:35:54;3.17;;;1.35;;
24547;SDS011;12713;51.624;4.924;2022-08-01T08:38:20;1.67;;;1.23;;
24547;SDS011;12713;51.624;4.924;2022-08-01T08:40:46;1.63;;;1.23;;
24547;SDS011;12713;51.624;4.924;2022-08-01T08:43:12;2.03;;;1.17;;
24547;SDS011;12713;51.624;4.924;2022-08-01T08:45:38;2.50;;;1.38;;
24547;SDS011;12713;51.624;4.924;2022-08-01T08:48:05;2.17;;;1.30;;
24547;SDS011;12713;51.624;4.924;2022-08-01T08:50:31;2.20;;;1.55;;
24547;SDS011;12713;51.624;4.924;2022-08-01T08:52:58;3.00;;;1.52;;
24547;SDS011;12713;51.624;4.924;2022-08-01T08:55:25;5.35;;;1.60;;
24547;SDS011;12713;51.624;4.924;2022-08-01T08:57:52;4.53;;;1.45;;
24547;SDS011;12713;51.624;4.924;2022-08-01T09:00:18;2.30;;;1.58;;
24547;SDS011;12713;51.624;4.924;2022-08-01T09:02:45;2.00;;;1.60;;
24547;SDS011;12713;51.624;4.924;2022-08-01T09:05:11;3.60;;;2.72;;
24547;SDS011;12713;51.624;4.924;2022-08-01T09:07:38;7.18;;;2.88;;
24547;SDS011;12713;51.624;4.924;2022-08-01T09:10:04;6.93;;;3.13;;
24547;SDS011;12713;51.624;4.924;2022-08-01T09:12:31;5.43;;;3.42;;
24547;SDS011;12713;51.624;4.924;2022-08-01T09:14:57;3.65;;;2.50;;
24547;SDS011;12713;51.624;4.924;2022-08-01T09:17:23;7.63;;;2.90;;
24547;SDS011;12713;51.624;4.924;2022-08-01T09:19:50;4.22;;;2.92;;
24547;SDS011;12713;51.624;4.924;2022-08-01T09:22:17;8.32;;;2.47;;
24547;SDS011;12713;51.624;4.924;2022-08-01T09:27:24;6.45;;;3.05;;
24547;SDS011;12713;51.624;4.924;2022-08-01T09:29:54;6.65;;;2.97;;
24547;SDS011;12713;51.624;4.924;2022-08-01T09:32:20;5.97;;;2.50;;
24547;SDS011;12713;51.624;4.924;2022-08-01T09:34:46;5.88;;;3.10;;
24547;SDS011;12713;51.624;4.924;2022-08-01T09:37:12;6.55;;;2.60;;
24547;SDS011;12713;51.624;4.924;2022-08-01T09:39:43;5.43;;;2.47;;
24547;SDS011;12713;51.624;4.924;2022-08-01T09:42:23;6.45;;;3.05;;
24547;SDS011;12713;51.624;4.924;2022-08-01T09:44:50;8.05;;;2.75;;
24547;SDS011;12713;51.624;4.924;2022-08-01T09:47:16;9.57;;;2.85;;
24547;SDS011;12713;51.624;4.924;2022-08-01T09:49:45;8.73;;;3.22;;
24547;SDS011;12713;51.624;4.924;2022-08-01T09:52:16;7.85;;;3.10;;
24547;SDS011;12713;51.624;4.924;2022-08-01T09:54:44;6.63;;;3.03;;
24547;SDS011;12713;51.624;4.924;2022-08-01T09:57:17;7.60;;;2.50;;
24547;SDS011;12713;51.624;4.924;2022-08-01T09:59:44;7.30;;;2.97;;
24547;SDS011;12713;51.624;4.924;2022-08-01T10:02:11;8.35;;;3.22;;
24547;SDS011;12713;51.624;4.924;2022-08-01T10:04:51;7.97;;;2.80;;
24547;SDS011;12713;51.624;4.924;2022-08-01T10:07:33;8.13;;;2.42;;
24547;SDS011;12713;51.624;4.924;2022-08-01T10:10:12;8.40;;;2.90;;
24547;SDS011;12713;51.624;4.924;2022-08-01T10:12:39;9.35;;;2.72;;
24547;SDS011;12713;51.624;4.924;2022-08-01T10:15:06;8.10;;;2.58;;
24547;SDS011;12713;51.624;4.924;2022-08-01T10:17:32;8.73;;;2.60;;
24547;SDS011;12713;51.624;4.924;2022-08-01T10:20:00;7.20;;;2.60;;
24547;SDS011;12713;51.624;4.924;2022-08-01T10:22:27;9.20;;;2.90;;
24547;SDS011;12713;51.624;4.924;2022-08-01T10:24:55;5.47;;;2.75;;
24547;SDS011;12713;51.624;4.924;2022-08-01T10:27:23;7.75;;;2.92;;
24547;SDS011;12713;51.624;4.924;2022-08-01T10:30:00;7.60;;;2.55;;
24547;SDS011;12713;51.624;4.924;2022-08-01T10:32:32;6.38;;;2.65;;
24547;SDS011;12713;51.624;4.924;2022-08-01T10:35:00;7.03;;;2.53;;
24547;SDS011;12713;51.624;4.924;2022-08-01T10:37:26;7.32;;;2.60;;
24547;SDS011;12713;51.624;4.924;2022-08-01T10:39:53;6.30;;;2.30;;
24547;SDS011;12713;51.624;4.924;2022-08-01T10:42:20;8.32;;;2.22;;
24547;SDS011;12713;51.624;4.924;2022-08-01T10:44:46;6.72;;;2.08;;
24547;SDS011;12713;51.624;4.924;2022-08-01T10:47:14;5.53;;;1.95;;
24547;SDS011;12713;51.624;4.924;2022-08-01T10:49:43;9.55;;;2.50;;
24547;SDS011;12713;51.624;4.924;2022-08-01T10:52:15;6.25;;;2.78;;
24547;SDS011;12713;51.624;4.924;2022-08-01T10:54:42;6.22;;;2.20;;
24547;SDS011;12713;51.624;4.924;2022-08-01T10:57:08;4.65;;;1.98;;
24547;SDS011;12713;51.624;4.924;2022-08-01T10:59:35;6.28;;;2.30;;
24547;SDS011;12713;51.624;4.924;2022-08-01T11:02:05;4.15;;;1.95;;
24547;SDS011;12713;51.624;4.924;2022-08-01T11:07:05;5.80;;;2.20;;
24547;SDS011;12713;51.624;4.924;2022-08-01T11:09:38;5.68;;;1.88;;
24547;SDS011;12713;51.624;4.924;2022-08-01T11:14:37;5.00;;;2.17;;
24547;SDS011;12713;51.624;4.924;2022-08-01T11:25:18;8.02;;;2.00;;
24547;SDS011;12713;51.624;4.924;2022-08-01T11:27:44;5.30;;;1.73;;
24547;SDS011;12713;51.624;4.924;2022-08-01T11:32:46;6.65;;;2.17;;
24547;SDS011;12713;51.624;4.924;2022-08-01T11:35:12;8.38;;;2.50;;
24547;SDS011;12713;51.624;4.924;2022-08-01T11:37:39;7.18;;;2.00;;
24547;SDS011;12713;51.624;4.924;2022-08-01T11:40:15;5.18;;;1.67;;
24547;SDS011;12713;51.624;4.924;2022-08-01T11:42:41;8.55;;;2.00;;
24547;SDS011;12713;51.624;4.924;2022-08-01T11:45:07;5.47;;;1.75;;
24547;SDS011;12713;51.624;4.924;2022-08-01T11:47:43;3.50;;;1.60;;
24547;SDS011;12713;51.624;4.924;2022-08-01T11:50:29;4.60;;;1.35;;
24547;SDS011;12713;51.624;4.924;2022-08-01T11:52:59;3.20;;;1.50;;
24547;SDS011;12713;51.624;4.924;2022-08-01T11:55:26;4.50;;;1.63;;
24547;SDS011;12713;51.624;4.924;2022-08-01T11:58:04;6.10;;;2.33;;
24547;SDS011;12713;51.624;4.924;2022-08-01T12:00:36;6.00;;;1.55;;
24547;SDS011;12713;51.624;4.924;2022-08-01T12:03:03;8.35;;;2.13;;
24547;SDS011;12713;51.624;4.924;2022-08-01T12:05:34;9.35;;;2.60;;
24547;SDS011;12713;51.624;4.924;2022-08-01T12:08:02;9.63;;;1.85;;
24547;SDS011;12713;51.624;4.924;2022-08-01T12:10:29;5.65;;;1.67;;
24547;SDS011;12713;51.624;4.924;2022-08-01T12:15:33;6.05;;;2.08;;
24547;SDS011;12713;51.624;4.924;2022-08-01T12:18:03;4.95;;;1.67;;
24547;SDS011;12713;51.624;4.924;2022-08-01T12:20:31;3.10;;;1.40;;
24547;SDS011;12713;51.624;4.924;2022-08-01T12:23:00;5.50;;;1.88;;
24547;SDS011;12713;51.624;4.924;2022-08-01T12:25:27;5.28;;;1.77;;
24547;SDS011;12713;51.624;4.924;2022-08-01T12:27:53;4.25;;;1.48;;
24547;SDS011;12713;51.624;4.924;2022-08-01T12:30:20;8.82;;;1.98;;
24547;SDS011;12713;51.624;4.924;2022-08-01T12:32:53;4.47;;;1.58;;
24547;SDS011;12713;51.624;4.924;2022-08-01T12:35:21;5.53;;;2.03;;
24547;SDS011;12713;51.624;4.924;2022-08-01T12:37:52;9.35;;;2.10;;
24547;SDS011;12713;51.624;4.924;2022-08-01T12:42:46;6.55;;;1.80;;
24547;SDS011;12713;51.624;4.924;2022-08-01T12:45:13;3.67;;;1.40;;
24547;SDS011;12713;51.624;4.924;2022-08-01T12:47:40;5.18;;;1.65;;
24547;SDS011;12713;51.624;4.924;2022-08-01T12:50:07;4.30;;;1.40;;
24547;SDS011;12713;51.624;4.924;2022-08-01T12:52:34;6.07;;;1.65;;
24547;SDS011;12713;51.624;4.924;2022-08-01T12:55:02;5.68;;;1.75;;
24547;SDS011;12713;51.624;4.924;2022-08-01T12:57:28;6.50;;;1.52;;
24547;SDS011;12713;51.624;4.924;2022-08-01T13:02:33;3.45;;;1.38;;
24547;SDS011;12713;51.624;4.924;2022-08-01T13:05:00;5.45;;;1.77;;
24547;SDS011;12713;51.624;4.924;2022-08-01T13:10:01;5.57;;;2.03;;
24547;SDS011;12713;51.624;4.924;2022-08-01T13:12:28;8.52;;;2.08;;
24547;SDS011;12713;51.624;4.924;2022-08-01T13:14:54;8.77;;;1.85;;
24547;SDS011;12713;51.624;4.924;2022-08-01T13:17:33;10.02;;;2.00;;
24547;SDS011;12713;51.624;4.924;2022-08-01T13:20:00;6.55;;;1.85;;
24547;SDS011;12713;51.624;4.924;2022-08-01T13:22:37;6.97;;;1.90;;
24547;SDS011;12713;51.624;4.924;2022-08-01T13:25:13;5.93;;;1.90;;
24547;SDS011;12713;51.624;4.924;2022-08-01T13:27:42;8.98;;;2.10;;
24547;SDS011;12713;51.624;4.924;2022-08-01T13:30:12;16.75;;;4.05;;
24547;SDS011;12713;51.624;4.924;2022-08-01T13:32:39;8.48;;;2.47;;
24547;SDS011;12713;51.624;4.924;2022-08-01T13:35:06;11.80;;;2.50;;
24547;SDS011;12713;51.624;4.924;2022-08-01T13:37:33;6.65;;;1.65;;
24547;SDS011;12713;51.624;4.924;2022-08-01T13:39:59;5.68;;;1.83;;
24547;SDS011;12713;51.624;4.924;2022-08-01T13:42:28;7.93;;;2.00;;
24547;SDS011;12713;51.624;4.924;2022-08-01T13:44:54;6.40;;;2.03;;
24547;SDS011;12713;51.624;4.924;2022-08-01T13:47:20;6.03;;;2.08;;
24547;SDS011;12713;51.624;4.924;2022-08-01T13:49:46;8.25;;;2.78;;
24547;SDS011;12713;51.624;4.924;2022-08-01T13:52:13;6.45;;;1.90;;
24547;SDS011;12713;51.624;4.924;2022-08-01T13:54:40;9.02;;;2.22;;
24547;SDS011;12713;51.624;4.924;2022-08-01T13:57:06;8.00;;;2.25;;
24547;SDS011;12713;51.624;4.924;2022-08-01T13:59:37;12.05;;;2.60;;
24547;SDS011;12713;51.624;4.924;2022-08-01T14:02:03;6.95;;;2.25;;
24547;SDS011;12713;51.624;4.924;2022-08-01T14:04:30;9.43;;;2.33;;
24547;SDS011;12713;51.624;4.924;2022-08-01T14:06:56;12.15;;;2.03;;
24547;SDS011;12713;51.624;4.924;2022-08-01T14:09:30;5.93;;;1.70;;
24547;SDS011;12713;51.624;4.924;2022-08-01T14:11:58;6.68;;;1.60;;
24547;SDS011;12713;51.624;4.924;2022-08-01T14:14:27;7.47;;;1.90;;
24547;SDS011;12713;51.624;4.924;2022-08-01T14:16:53;8.05;;;2.88;;
24547;SDS011;12713;51.624;4.924;2022-08-01T14:19:19;12.85;;;3.10;;
24547;SDS011;12713;51.624;4.924;2022-08-01T14:21:45;5.25;;;1.70;;
24547;SDS011;12713;51.624;4.924;2022-08-01T14:24:11;5.13;;;1.85;;
24547;SDS011;12713;51.624;4.924;2022-08-01T14:26:40;4.75;;;1.75;;
24547;SDS011;12713;51.624;4.924;2022-08-01T14:29:06;4.60;;;1.50;;
24547;SDS011;12713;51.624;4.924;2022-08-01T14:31:32;5.80;;;1.73;;
24547;SDS011;12713;51.624;4.924;2022-08-01T14:33:58;7.13;;;2.17;;
24547;SDS011;12713;51.624;4.924;2022-08-01T14:36:24;7.97;;;2.13;;
24547;SDS011;12713;51.624;4.924;2022-08-01T14:38:50;9.40;;;2.33;;
24547;SDS011;12713;51.624;4.924;2022-08-01T14:41:18;8.43;;;1.95;;
24547;SDS011;12713;51.624;4.924;2022-08-01T14:43:44;7.30;;;2.42;;
24547;SDS011;12713;51.624;4.924;2022-08-01T14:46:10;6.43;;;2.10;;
24547;SDS011;12713;51.624;4.924;2022-08-01T14:48:37;4.93;;;1.90;;
24547;SDS011;12713;51.624;4.924;2022-08-01T14:51:03;6.80;;;2.20;;
24547;SDS011;12713;51.624;4.924;2022-08-01T14:53:32;4.00;;;1.85;;
24547;SDS011;12713;51.624;4.924;2022-08-01T14:55:59;6.07;;;2.17;;
24547;SDS011;12713;51.624;4.924;2022-08-01T14:58:26;6.13;;;1.88;;
24547;SDS011;12713;51.624;4.924;2022-08-01T15:00:52;10.13;;;2.33;;
24547;SDS011;12713;51.624;4.924;2022-08-01T15:03:19;8.15;;;1.60;;
24547;SDS011;12713;51.624;4.924;2022-08-01T15:05:45;6.60;;;1.83;;
24547;SDS011;12713;51.624;4.924;2022-08-01T15:08:12;5.90;;;1.70;;
24547;SDS011;12713;51.624;4.924;2022-08-01T15:10:38;5.78;;;1.92;;
24547;SDS011;12713;51.624;4.924;2022-08-01T15:13:04;7.28;;;2.25;;
24547;SDS011;12713;51.624;4.924;2022-08-01T15:15:35;5.83;;;2.07;;